sensor_id;sensor_type;location;lat;lon;timestamp;P1;durP1;ratioP1;P2;durP2;ratioP2
14797;SDS011;7490;63.708;20.368;2024-01-30T00:01:24;10.53;;;1.80;;
14797;SDS011;7490;63.708;20.368;2024-01-30T00:03:50;5.63;;;1.97;;
14797;SDS011;7490;63.708;20.368;2024-01-30T00:06:18;6.70;;;1.87;;
14797;SDS011;7490;63.708;20.368;2024-01-30T00:08:46;6.87;;;1.80;;
14797;SDS011;7490;63.708;20.368;2024-01-30T00:11:13;6.47;;;1.53;;
14797;SDS011;7490;63.708;20.368;2024-01-30T00:13:39;5.33;;;1.73;;
14797;SDS011;7490;63.708;20.368;2024-01-30T00:16:05;5.03;;;1.50;;
14797;SDS011;7490;63.708;20.368;2024-01-30T00:18:31;7.47;;;1.57;;
14797;SDS011;7490;63.708;20.368;2024-01-30T00:20:57;8.63;;;1.77;;
14797;SDS011;7490;63.708;20.368;2024-01-30T00:23:23;7.90;;;2.17;;
14797;SDS011;7490;63.708;20.368;2024-01-30T00:25:49;5.57;;;1.90;;
14797;SDS011;7490;63.708;20.368;2024-01-30T00:28:15;9.47;;;1.80;;
14797;SDS011;7490;63.708;20.368;2024-01-30T00:30:41;4.73;;;1.53;;
14797;SDS011;7490;63.708;20.368;2024-01-30T00:33:06;5.67;;;1.50;;
14797;SDS011;7490;63.708;20.368;2024-01-30T00:35:33;6.70;;;1.80;;
14797;SDS011;7490;63.708;20.368;2024-01-30T00:37:58;7.17;;;2.30;;
14797;SDS011;7490;63.708;20.368;2024-01-30T00:40:24;14.87;;;3.40;;
14797;SDS011;7490;63.708;20.368;2024-01-30T00:42:50;9.57;;;1.97;;
14797;SDS011;7490;63.708;20.368;2024-01-30T00:45:16;4.80;;;1.37;;
14797;SDS011;7490;63.708;20.368;2024-01-30T00:47:42;6.80;;;2.00;;
14797;SDS011;7490;63.708;20.368;2024-01-30T00:50:08;5.57;;;1.70;;
14797;SDS011;7490;63.708;20.368;2024-01-30T00:52:34;7.53;;;1.77;;
14797;SDS011;7490;63.708;20.368;2024-01-30T00:55:00;5.37;;;1.67;;
14797;SDS011;7490;63.708;20.368;2024-01-30T00:57:26;9.43;;;1.90;;
14797;SDS011;7490;63.708;20.368;2024-01-30T00:59:52;6.93;;;1.60;;
14797;SDS011;7490;63.708;20.368;2024-01-30T01:02:18;13.93;;;2.20;;
14797;SDS011;7490;63.708;20.368;2024-01-30T01:04:43;6.60;;;1.73;;
14797;SDS011;7490;63.708;20.368;2024-01-30T01:07:10;10.47;;;2.30;;
14797;SDS011;7490;63.708;20.368;2024-01-30T01:09:36;6.83;;;1.60;;
14797;SDS011;7490;63.708;20.368;2024-01-30T01:12:02;6.40;;;1.53;;
14797;SDS011;7490;63.708;20.368;2024-01-30T01:14:28;6.53;;;1.70;;
14797;SDS011;7490;63.708;20.368;2024-01-30T01:16:54;6.47;;;1.73;;
14797;SDS011;7490;63.708;20.368;2024-01-30T01:19:20;9.93;;;1.80;;
14797;SDS011;7490;63.708;20.368;2024-01-30T01:21:46;6.17;;;1.80;;
14797;SDS011;7490;63.708;20.368;2024-01-30T01:24:12;9.73;;;2.00;;
14797;SDS011;7490;63.708;20.368;2024-01-30T01:26:37;4.23;;;1.53;;
14797;SDS011;7490;63.708;20.368;2024-01-30T01:29:03;6.43;;;1.77;;
14797;SDS011;7490;63.708;20.368;2024-01-30T01:31:35;7.30;;;1.83;;
14797;SDS011;7490;63.708;20.368;2024-01-30T01:34:05;9.17;;;1.83;;
14797;SDS011;7490;63.708;20.368;2024-01-30T01:36:31;8.30;;;2.13;;
14797;SDS011;7490;63.708;20.368;2024-01-30T01:38:56;6.03;;;1.80;;
14797;SDS011;7490;63.708;20.368;2024-01-30T01:41:22;6.40;;;1.73;;
14797;SDS011;7490;63.708;20.368;2024-01-30T01:43:48;6.90;;;1.73;;
14797;SDS011;7490;63.708;20.368;2024-01-30T01:46:13;6.13;;;1.90;;
14797;SDS011;7490;63.708;20.368;2024-01-30T01:48:39;6.90;;;1.67;;
14797;SDS011;7490;63.708;20.368;2024-01-30T01:51:05;6.03;;;1.67;;
14797;SDS011;7490;63.708;20.368;2024-01-30T01:53:32;11.70;;;1.93;;
14797;SDS011;7490;63.708;20.368;2024-01-30T01:55:58;6.57;;;1.63;;
14797;SDS011;7490;63.708;20.368;2024-01-30T01:58:23;4.97;;;1.70;;
14797;SDS011;7490;63.708;20.368;2024-01-30T02:00:53;4.57;;;1.50;;
14797;SDS011;7490;63.708;20.368;2024-01-30T02:03:21;9.10;;;1.60;;
14797;SDS011;7490;63.708;20.368;2024-01-30T02:05:46;8.73;;;1.80;;
14797;SDS011;7490;63.708;20.368;2024-01-30T02:08:12;6.47;;;1.97;;
14797;SDS011;7490;63.708;20.368;2024-01-30T02:10:38;6.80;;;1.60;;
14797;SDS011;7490;63.708;20.368;2024-01-30T02:13:04;5.60;;;1.73;;
14797;SDS011;7490;63.708;20.368;2024-01-30T02:15:30;6.70;;;1.63;;
14797;SDS011;7490;63.708;20.368;2024-01-30T02:17:55;7.80;;;1.73;;
14797;SDS011;7490;63.708;20.368;2024-01-30T02:20:21;5.63;;;1.27;;
14797;SDS011;7490;63.708;20.368;2024-01-30T02:22:49;9.33;;;1.93;;
14797;SDS011;7490;63.708;20.368;2024-01-30T02:25:17;7.07;;;2.07;;
14797;SDS011;7490;63.708;20.368;2024-01-30T02:27:43;6.60;;;2.00;;
14797;SDS011;7490;63.708;20.368;2024-01-30T02:30:08;7.17;;;2.20;;
14797;SDS011;7490;63.708;20.368;2024-01-30T02:32:35;9.80;;;2.20;;
14797;SDS011;7490;63.708;20.368;2024-01-30T02:35:00;11.53;;;2.63;;
14797;SDS011;7490;63.708;20.368;2024-01-30T02:37:26;7.37;;;2.10;;
14797;SDS011;7490;63.708;20.368;2024-01-30T02:39:51;9.50;;;1.90;;
14797;SDS011;7490;63.708;20.368;2024-01-30T02:42:17;9.43;;;1.87;;
14797;SDS011;7490;63.708;20.368;2024-01-30T02:44:43;8.30;;;1.70;;
14797;SDS011;7490;63.708;20.368;2024-01-30T02:47:08;6.20;;;1.50;;
14797;SDS011;7490;63.708;20.368;2024-01-30T02:49:34;8.13;;;1.93;;
14797;SDS011;7490;63.708;20.368;2024-01-30T02:51:59;9.87;;;2.10;;
14797;SDS011;7490;63.708;20.368;2024-01-30T02:54:25;9.07;;;2.20;;
14797;SDS011;7490;63.708;20.368;2024-01-30T02:56:51;13.37;;;3.00;;
14797;SDS011;7490;63.708;20.368;2024-01-30T02:59:16;10.67;;;2.80;;
14797;SDS011;7490;63.708;20.368;2024-01-30T03:01:42;10.67;;;3.40;;
14797;SDS011;7490;63.708;20.368;2024-01-30T03:04:09;10.37;;;2.90;;
14797;SDS011;7490;63.708;20.368;2024-01-30T03:06:35;9.37;;;2.27;;
14797;SDS011;7490;63.708;20.368;2024-01-30T03:09:01;10.30;;;2.30;;
14797;SDS011;7490;63.708;20.368;2024-01-30T03:11:27;6.67;;;2.30;;
14797;SDS011;7490;63.708;20.368;2024-01-30T03:13:52;6.23;;;1.67;;
14797;SDS011;7490;63.708;20.368;2024-01-30T03:16:18;5.87;;;1.70;;
14797;SDS011;7490;63.708;20.368;2024-01-30T03:18:43;6.87;;;1.40;;
14797;SDS011;7490;63.708;20.368;2024-01-30T03:21:09;4.67;;;1.53;;
14797;SDS011;7490;63.708;20.368;2024-01-30T03:23:35;10.47;;;2.80;;
14797;SDS011;7490;63.708;20.368;2024-01-30T03:26:00;14.83;;;3.13;;
14797;SDS011;7490;63.708;20.368;2024-01-30T03:28:26;7.57;;;2.57;;
14797;SDS011;7490;63.708;20.368;2024-01-30T03:30:51;6.10;;;2.03;;
14797;SDS011;7490;63.708;20.368;2024-01-30T03:33:17;10.40;;;1.83;;
14797;SDS011;7490;63.708;20.368;2024-01-30T03:35:43;9.70;;;2.13;;
14797;SDS011;7490;63.708;20.368;2024-01-30T03:38:08;11.83;;;2.40;;
14797;SDS011;7490;63.708;20.368;2024-01-30T03:40:34;7.23;;;1.83;;
14797;SDS011;7490;63.708;20.368;2024-01-30T03:42:59;6.57;;;1.67;;
14797;SDS011;7490;63.708;20.368;2024-01-30T03:45:25;4.13;;;1.70;;
14797;SDS011;7490;63.708;20.368;2024-01-30T03:47:51;6.83;;;1.67;;
14797;SDS011;7490;63.708;20.368;2024-01-30T03:50:16;9.10;;;2.33;;
14797;SDS011;7490;63.708;20.368;2024-01-30T03:52:42;12.57;;;2.80;;
14797;SDS011;7490;63.708;20.368;2024-01-30T03:55:07;8.60;;;2.33;;
14797;SDS011;7490;63.708;20.368;2024-01-30T03:57:33;6.87;;;2.13;;
14797;SDS011;7490;63.708;20.368;2024-01-30T03:59:59;7.43;;;2.90;;
14797;SDS011;7490;63.708;20.368;2024-01-30T04:02:24;13.03;;;2.23;;
14797;SDS011;7490;63.708;20.368;2024-01-30T04:04:50;16.07;;;3.17;;
14797;SDS011;7490;63.708;20.368;2024-01-30T04:07:16;9.87;;;2.30;;
14797;SDS011;7490;63.708;20.368;2024-01-30T04:09:41;11.33;;;1.70;;
14797;SDS011;7490;63.708;20.368;2024-01-30T04:12:07;7.43;;;1.90;;
14797;SDS011;7490;63.708;20.368;2024-01-30T04:14:33;4.70;;;1.20;;
14797;SDS011;7490;63.708;20.368;2024-01-30T04:16:58;4.37;;;1.20;;
14797;SDS011;7490;63.708;20.368;2024-01-30T04:19:24;3.23;;;1.40;;
14797;SDS011;7490;63.708;20.368;2024-01-30T04:21:50;4.70;;;1.00;;
14797;SDS011;7490;63.708;20.368;2024-01-30T04:24:15;2.70;;;1.10;;
14797;SDS011;7490;63.708;20.368;2024-01-30T04:26:43;1.83;;;1.03;;
14797;SDS011;7490;63.708;20.368;2024-01-30T04:29:09;9.13;;;1.37;;
14797;SDS011;7490;63.708;20.368;2024-01-30T04:31:36;2.43;;;1.00;;
14797;SDS011;7490;63.708;20.368;2024-01-30T04:34:02;4.93;;;1.23;;
14797;SDS011;7490;63.708;20.368;2024-01-30T04:36:27;3.67;;;1.30;;
14797;SDS011;7490;63.708;20.368;2024-01-30T04:38:53;5.17;;;1.03;;
14797;SDS011;7490;63.708;20.368;2024-01-30T04:41:18;7.53;;;1.40;;
14797;SDS011;7490;63.708;20.368;2024-01-30T04:43:44;2.97;;;0.83;;
14797;SDS011;7490;63.708;20.368;2024-01-30T04:46:10;7.10;;;1.30;;
14797;SDS011;7490;63.708;20.368;2024-01-30T04:48:35;4.07;;;1.63;;
14797;SDS011;7490;63.708;20.368;2024-01-30T04:51:01;3.97;;;1.20;;
14797;SDS011;7490;63.708;20.368;2024-01-30T04:53:29;4.60;;;1.17;;
14797;SDS011;7490;63.708;20.368;2024-01-30T04:55:56;2.97;;;1.20;;
14797;SDS011;7490;63.708;20.368;2024-01-30T04:58:21;3.03;;;1.27;;
14797;SDS011;7490;63.708;20.368;2024-01-30T05:00:47;2.83;;;1.17;;
14797;SDS011;7490;63.708;20.368;2024-01-30T05:03:16;3.27;;;1.30;;
14797;SDS011;7490;63.708;20.368;2024-01-30T05:05:42;2.10;;;1.03;;
14797;SDS011;7490;63.708;20.368;2024-01-30T05:08:08;1.93;;;1.10;;
14797;SDS011;7490;63.708;20.368;2024-01-30T05:10:34;3.33;;;1.23;;
14797;SDS011;7490;63.708;20.368;2024-01-30T05:12:59;3.23;;;0.90;;
14797;SDS011;7490;63.708;20.368;2024-01-30T05:15:25;3.73;;;0.90;;
14797;SDS011;7490;63.708;20.368;2024-01-30T05:17:50;3.03;;;1.00;;
14797;SDS011;7490;63.708;20.368;2024-01-30T05:20:16;6.33;;;1.10;;
14797;SDS011;7490;63.708;20.368;2024-01-30T05:22:42;6.03;;;1.00;;
14797;SDS011;7490;63.708;20.368;2024-01-30T05:25:10;3.07;;;0.90;;
14797;SDS011;7490;63.708;20.368;2024-01-30T05:27:37;2.07;;;1.00;;
14797;SDS011;7490;63.708;20.368;2024-01-30T05:30:02;4.43;;;1.17;;
14797;SDS011;7490;63.708;20.368;2024-01-30T05:32:29;2.83;;;0.90;;
14797;SDS011;7490;63.708;20.368;2024-01-30T05:34:54;3.40;;;0.90;;
14797;SDS011;7490;63.708;20.368;2024-01-30T05:37:20;4.67;;;1.70;;
14797;SDS011;7490;63.708;20.368;2024-01-30T05:39:46;2.90;;;0.90;;
14797;SDS011;7490;63.708;20.368;2024-01-30T05:42:11;4.87;;;1.17;;
14797;SDS011;7490;63.708;20.368;2024-01-30T05:44:37;4.87;;;0.87;;
14797;SDS011;7490;63.708;20.368;2024-01-30T05:47:02;6.47;;;0.93;;
14797;SDS011;7490;63.708;20.368;2024-01-30T05:49:28;4.53;;;1.00;;
14797;SDS011;7490;63.708;20.368;2024-01-30T05:51:54;2.67;;;0.90;;
14797;SDS011;7490;63.708;20.368;2024-01-30T05:54:19;3.97;;;1.10;;
14797;SDS011;7490;63.708;20.368;2024-01-30T05:56:45;1.37;;;0.87;;
14797;SDS011;7490;63.708;20.368;2024-01-30T05:59:11;2.53;;;0.97;;
14797;SDS011;7490;63.708;20.368;2024-01-30T06:01:36;6.53;;;1.03;;
14797;SDS011;7490;63.708;20.368;2024-01-30T06:04:02;3.77;;;0.80;;
14797;SDS011;7490;63.708;20.368;2024-01-30T06:06:28;5.07;;;1.10;;
14797;SDS011;7490;63.708;20.368;2024-01-30T06:08:54;3.37;;;0.80;;
14797;SDS011;7490;63.708;20.368;2024-01-30T06:11:21;2.43;;;1.20;;
14797;SDS011;7490;63.708;20.368;2024-01-30T06:13:46;4.73;;;0.87;;
14797;SDS011;7490;63.708;20.368;2024-01-30T06:16:12;2.93;;;1.07;;
14797;SDS011;7490;63.708;20.368;2024-01-30T06:18:38;3.20;;;1.30;;
14797;SDS011;7490;63.708;20.368;2024-01-30T06:21:04;2.30;;;0.97;;
14797;SDS011;7490;63.708;20.368;2024-01-30T06:23:30;3.63;;;1.10;;
14797;SDS011;7490;63.708;20.368;2024-01-30T06:25:55;3.37;;;1.13;;
14797;SDS011;7490;63.708;20.368;2024-01-30T06:28:21;1.90;;;1.00;;
14797;SDS011;7490;63.708;20.368;2024-01-30T06:30:47;2.20;;;0.90;;
14797;SDS011;7490;63.708;20.368;2024-01-30T06:33:12;3.30;;;1.20;;
14797;SDS011;7490;63.708;20.368;2024-01-30T06:35:38;3.17;;;1.10;;
14797;SDS011;7490;63.708;20.368;2024-01-30T06:38:05;2.23;;;0.90;;
14797;SDS011;7490;63.708;20.368;2024-01-30T06:40:31;2.40;;;1.17;;
14797;SDS011;7490;63.708;20.368;2024-01-30T06:42:57;2.40;;;1.00;;
14797;SDS011;7490;63.708;20.368;2024-01-30T06:45:22;2.80;;;0.83;;
14797;SDS011;7490;63.708;20.368;2024-01-30T06:47:48;4.10;;;1.13;;
14797;SDS011;7490;63.708;20.368;2024-01-30T06:50:13;6.60;;;1.27;;
14797;SDS011;7490;63.708;20.368;2024-01-30T06:52:39;4.77;;;0.90;;
14797;SDS011;7490;63.708;20.368;2024-01-30T06:55:05;2.47;;;0.90;;
14797;SDS011;7490;63.708;20.368;2024-01-30T06:57:31;3.07;;;1.37;;
14797;SDS011;7490;63.708;20.368;2024-01-30T06:59:57;2.97;;;1.10;;
14797;SDS011;7490;63.708;20.368;2024-01-30T07:02:22;4.80;;;1.10;;
14797;SDS011;7490;63.708;20.368;2024-01-30T07:04:48;2.43;;;0.90;;
14797;SDS011;7490;63.708;20.368;2024-01-30T07:07:14;4.30;;;1.10;;
14797;SDS011;7490;63.708;20.368;2024-01-30T07:09:40;4.60;;;0.90;;
14797;SDS011;7490;63.708;20.368;2024-01-30T07:12:06;3.67;;;0.97;;
14797;SDS011;7490;63.708;20.368;2024-01-30T07:14:32;2.43;;;1.07;;
14797;SDS011;7490;63.708;20.368;2024-01-30T07:16:58;3.13;;;0.90;;
14797;SDS011;7490;63.708;20.368;2024-01-30T07:19:23;3.17;;;0.80;;
14797;SDS011;7490;63.708;20.368;2024-01-30T07:21:49;1.90;;;0.90;;
14797;SDS011;7490;63.708;20.368;2024-01-30T07:24:15;3.67;;;1.17;;
14797;SDS011;7490;63.708;20.368;2024-01-30T07:26:40;3.70;;;1.03;;
14797;SDS011;7490;63.708;20.368;2024-01-30T07:29:06;6.07;;;1.10;;
14797;SDS011;7490;63.708;20.368;2024-01-30T07:31:31;2.43;;;1.07;;
14797;SDS011;7490;63.708;20.368;2024-01-30T07:33:57;3.67;;;1.00;;
14797;SDS011;7490;63.708;20.368;2024-01-30T07:36:23;5.87;;;1.10;;
14797;SDS011;7490;63.708;20.368;2024-01-30T07:38:48;3.77;;;1.10;;
14797;SDS011;7490;63.708;20.368;2024-01-30T07:41:14;4.00;;;1.10;;
14797;SDS011;7490;63.708;20.368;2024-01-30T07:43:39;6.23;;;1.83;;
14797;SDS011;7490;63.708;20.368;2024-01-30T07:46:05;2.80;;;1.00;;
14797;SDS011;7490;63.708;20.368;2024-01-30T07:48:31;5.27;;;1.37;;
14797;SDS011;7490;63.708;20.368;2024-01-30T07:50:58;2.67;;;1.00;;
14797;SDS011;7490;63.708;20.368;2024-01-30T07:53:24;2.73;;;0.93;;
14797;SDS011;7490;63.708;20.368;2024-01-30T07:55:50;2.43;;;1.00;;
14797;SDS011;7490;63.708;20.368;2024-01-30T07:58:16;4.27;;;1.30;;
14797;SDS011;7490;63.708;20.368;2024-01-30T08:00:41;4.47;;;1.23;;
14797;SDS011;7490;63.708;20.368;2024-01-30T08:03:07;3.67;;;1.20;;
14797;SDS011;7490;63.708;20.368;2024-01-30T08:05:32;3.43;;;1.10;;
14797;SDS011;7490;63.708;20.368;2024-01-30T08:07:58;5.53;;;1.40;;
14797;SDS011;7490;63.708;20.368;2024-01-30T08:10:24;3.50;;;1.10;;
14797;SDS011;7490;63.708;20.368;2024-01-30T08:12:49;6.17;;;0.90;;
14797;SDS011;7490;63.708;20.368;2024-01-30T08:15:15;3.77;;;1.10;;
14797;SDS011;7490;63.708;20.368;2024-01-30T08:17:41;4.73;;;1.10;;
14797;SDS011;7490;63.708;20.368;2024-01-30T08:20:06;5.37;;;1.10;;
14797;SDS011;7490;63.708;20.368;2024-01-30T08:22:33;3.57;;;1.10;;
14797;SDS011;7490;63.708;20.368;2024-01-30T08:24:59;1.97;;;0.90;;
14797;SDS011;7490;63.708;20.368;2024-01-30T08:27:24;2.90;;;1.10;;
14797;SDS011;7490;63.708;20.368;2024-01-30T08:29:50;4.50;;;1.23;;
14797;SDS011;7490;63.708;20.368;2024-01-30T08:32:16;3.47;;;1.13;;
14797;SDS011;7490;63.708;20.368;2024-01-30T08:34:41;3.97;;;0.93;;
14797;SDS011;7490;63.708;20.368;2024-01-30T08:37:07;4.13;;;1.10;;
14797;SDS011;7490;63.708;20.368;2024-01-30T08:39:33;3.47;;;0.90;;
14797;SDS011;7490;63.708;20.368;2024-01-30T08:41:58;3.40;;;1.30;;
14797;SDS011;7490;63.708;20.368;2024-01-30T08:44:24;2.93;;;1.10;;
14797;SDS011;7490;63.708;20.368;2024-01-30T08:46:50;2.67;;;1.10;;
14797;SDS011;7490;63.708;20.368;2024-01-30T08:49:16;5.00;;;1.20;;
14797;SDS011;7490;63.708;20.368;2024-01-30T08:51:42;2.77;;;1.20;;
14797;SDS011;7490;63.708;20.368;2024-01-30T08:54:07;4.03;;;1.00;;
14797;SDS011;7490;63.708;20.368;2024-01-30T08:56:33;4.37;;;1.20;;
14797;SDS011;7490;63.708;20.368;2024-01-30T08:58:59;2.20;;;1.27;;
14797;SDS011;7490;63.708;20.368;2024-01-30T09:01:24;2.77;;;0.90;;
14797;SDS011;7490;63.708;20.368;2024-01-30T09:03:50;4.57;;;1.00;;
14797;SDS011;7490;63.708;20.368;2024-01-30T09:06:16;4.27;;;1.10;;
14797;SDS011;7490;63.708;20.368;2024-01-30T09:08:41;1.67;;;0.80;;
14797;SDS011;7490;63.708;20.368;2024-01-30T09:11:14;3.70;;;0.83;;
14797;SDS011;7490;63.708;20.368;2024-01-30T09:13:40;3.23;;;0.90;;
14797;SDS011;7490;63.708;20.368;2024-01-30T09:16:06;7.07;;;1.47;;
14797;SDS011;7490;63.708;20.368;2024-01-30T09:18:32;3.97;;;1.10;;
14797;SDS011;7490;63.708;20.368;2024-01-30T09:20:58;7.13;;;1.37;;
14797;SDS011;7490;63.708;20.368;2024-01-30T09:23:24;2.80;;;0.90;;
14797;SDS011;7490;63.708;20.368;2024-01-30T09:25:50;2.87;;;1.00;;
14797;SDS011;7490;63.708;20.368;2024-01-30T09:28:16;8.13;;;1.10;;
14797;SDS011;7490;63.708;20.368;2024-01-30T09:30:42;2.37;;;1.10;;
14797;SDS011;7490;63.708;20.368;2024-01-30T09:33:08;3.37;;;0.93;;
14797;SDS011;7490;63.708;20.368;2024-01-30T09:35:34;1.17;;;1.00;;
14797;SDS011;7490;63.708;20.368;2024-01-30T09:38:01;3.83;;;0.97;;
14797;SDS011;7490;63.708;20.368;2024-01-30T09:40:27;3.53;;;1.10;;
14797;SDS011;7490;63.708;20.368;2024-01-30T09:42:53;3.57;;;0.90;;
14797;SDS011;7490;63.708;20.368;2024-01-30T09:45:20;1.80;;;0.83;;
14797;SDS011;7490;63.708;20.368;2024-01-30T09:47:49;4.13;;;1.17;;
14797;SDS011;7490;63.708;20.368;2024-01-30T09:50:15;2.73;;;1.00;;
14797;SDS011;7490;63.708;20.368;2024-01-30T09:52:42;2.63;;;1.20;;
14797;SDS011;7490;63.708;20.368;2024-01-30T09:55:09;4.03;;;1.20;;
14797;SDS011;7490;63.708;20.368;2024-01-30T09:57:35;3.03;;;1.50;;
14797;SDS011;7490;63.708;20.368;2024-01-30T10:00:01;5.53;;;1.20;;
14797;SDS011;7490;63.708;20.368;2024-01-30T10:02:29;4.10;;;0.97;;
14797;SDS011;7490;63.708;20.368;2024-01-30T10:04:57;4.80;;;1.30;;
14797;SDS011;7490;63.708;20.368;2024-01-30T10:07:23;3.63;;;1.17;;
14797;SDS011;7490;63.708;20.368;2024-01-30T10:09:49;3.90;;;1.20;;
14797;SDS011;7490;63.708;20.368;2024-01-30T10:12:15;4.97;;;1.37;;
14797;SDS011;7490;63.708;20.368;2024-01-30T10:14:41;4.33;;;1.20;;
14797;SDS011;7490;63.708;20.368;2024-01-30T10:17:11;2.80;;;1.00;;
14797;SDS011;7490;63.708;20.368;2024-01-30T10:19:38;2.00;;;1.13;;
14797;SDS011;7490;63.708;20.368;2024-01-30T10:22:04;1.60;;;0.90;;
14797;SDS011;7490;63.708;20.368;2024-01-30T10:24:31;2.43;;;0.83;;
14797;SDS011;7490;63.708;20.368;2024-01-30T10:26:58;2.57;;;0.87;;
14797;SDS011;7490;63.708;20.368;2024-01-30T10:29:24;3.30;;;0.97;;
14797;SDS011;7490;63.708;20.368;2024-01-30T10:32:00;2.63;;;1.00;;
14797;SDS011;7490;63.708;20.368;2024-01-30T10:34:27;4.57;;;1.07;;
14797;SDS011;7490;63.708;20.368;2024-01-30T10:37:01;2.60;;;0.90;;
14797;SDS011;7490;63.708;20.368;2024-01-30T10:39:31;2.97;;;0.90;;
14797;SDS011;7490;63.708;20.368;2024-01-30T10:42:02;1.80;;;1.00;;
14797;SDS011;7490;63.708;20.368;2024-01-30T10:44:30;2.73;;;0.80;;
14797;SDS011;7490;63.708;20.368;2024-01-30T10:47:06;2.10;;;0.97;;
14797;SDS011;7490;63.708;20.368;2024-01-30T10:49:36;4.93;;;1.10;;
14797;SDS011;7490;63.708;20.368;2024-01-30T10:52:03;2.73;;;1.00;;
14797;SDS011;7490;63.708;20.368;2024-01-30T10:54:30;3.47;;;1.20;;
14797;SDS011;7490;63.708;20.368;2024-01-30T10:56:58;4.90;;;1.17;;
14797;SDS011;7490;63.708;20.368;2024-01-30T10:59:28;2.87;;;1.10;;
14797;SDS011;7490;63.708;20.368;2024-01-30T11:01:56;2.13;;;1.00;;
14797;SDS011;7490;63.708;20.368;2024-01-30T11:04:24;2.90;;;1.20;;
14797;SDS011;7490;63.708;20.368;2024-01-30T11:06:50;3.70;;;1.20;;
14797;SDS011;7490;63.708;20.368;2024-01-30T11:09:17;3.57;;;1.13;;
14797;SDS011;7490;63.708;20.368;2024-01-30T11:11:55;2.27;;;1.00;;
14797;SDS011;7490;63.708;20.368;2024-01-30T11:14:29;3.90;;;1.33;;
14797;SDS011;7490;63.708;20.368;2024-01-30T11:16:58;5.17;;;1.20;;
14797;SDS011;7490;63.708;20.368;2024-01-30T11:19:24;2.37;;;0.90;;
14797;SDS011;7490;63.708;20.368;2024-01-30T11:21:52;2.70;;;0.90;;
14797;SDS011;7490;63.708;20.368;2024-01-30T11:24:19;5.90;;;1.00;;
14797;SDS011;7490;63.708;20.368;2024-01-30T11:26:49;2.17;;;0.80;;
14797;SDS011;7490;63.708;20.368;2024-01-30T11:29:20;2.30;;;0.97;;
14797;SDS011;7490;63.708;20.368;2024-01-30T11:31:53;4.27;;;1.17;;
14797;SDS011;7490;63.708;20.368;2024-01-30T11:34:20;3.50;;;1.00;;
14797;SDS011;7490;63.708;20.368;2024-01-30T11:36:48;2.43;;;1.00;;
14797;SDS011;7490;63.708;20.368;2024-01-30T11:39:20;2.93;;;0.90;;
14797;SDS011;7490;63.708;20.368;2024-01-30T11:41:47;2.53;;;0.90;;
14797;SDS011;7490;63.708;20.368;2024-01-30T11:44:15;3.40;;;1.10;;
14797;SDS011;7490;63.708;20.368;2024-01-30T11:46:41;2.40;;;1.17;;
14797;SDS011;7490;63.708;20.368;2024-01-30T11:49:07;2.40;;;1.10;;
14797;SDS011;7490;63.708;20.368;2024-01-30T11:51:33;1.33;;;1.00;;
14797;SDS011;7490;63.708;20.368;2024-01-30T11:53:59;2.30;;;0.93;;
14797;SDS011;7490;63.708;20.368;2024-01-30T11:56:24;4.40;;;1.00;;
14797;SDS011;7490;63.708;20.368;2024-01-30T11:58:51;4.17;;;1.20;;
14797;SDS011;7490;63.708;20.368;2024-01-30T12:01:17;5.90;;;1.33;;
14797;SDS011;7490;63.708;20.368;2024-01-30T12:03:48;4.90;;;1.20;;
14797;SDS011;7490;63.708;20.368;2024-01-30T12:06:15;1.67;;;1.10;;
14797;SDS011;7490;63.708;20.368;2024-01-30T12:08:41;3.70;;;1.03;;
14797;SDS011;7490;63.708;20.368;2024-01-30T12:11:07;4.73;;;1.77;;
14797;SDS011;7490;63.708;20.368;2024-01-30T12:13:33;1.30;;;0.93;;
14797;SDS011;7490;63.708;20.368;2024-01-30T12:16:02;3.40;;;1.20;;
14797;SDS011;7490;63.708;20.368;2024-01-30T12:18:28;2.03;;;1.00;;
14797;SDS011;7490;63.708;20.368;2024-01-30T12:20:57;2.70;;;0.90;;
14797;SDS011;7490;63.708;20.368;2024-01-30T12:23:24;3.20;;;1.17;;
14797;SDS011;7490;63.708;20.368;2024-01-30T12:25:51;4.77;;;1.10;;
14797;SDS011;7490;63.708;20.368;2024-01-30T12:28:17;3.90;;;1.60;;
14797;SDS011;7490;63.708;20.368;2024-01-30T12:30:43;1.20;;;1.00;;
14797;SDS011;7490;63.708;20.368;2024-01-30T12:33:09;3.03;;;1.00;;
14797;SDS011;7490;63.708;20.368;2024-01-30T12:35:35;5.40;;;1.30;;
14797;SDS011;7490;63.708;20.368;2024-01-30T12:38:00;3.60;;;1.00;;
14797;SDS011;7490;63.708;20.368;2024-01-30T12:40:27;7.93;;;1.67;;
14797;SDS011;7490;63.708;20.368;2024-01-30T12:42:53;17.13;;;2.47;;
14797;SDS011;7490;63.708;20.368;2024-01-30T12:45:19;6.83;;;2.37;;
14797;SDS011;7490;63.708;20.368;2024-01-30T12:47:46;3.43;;;1.03;;
14797;SDS011;7490;63.708;20.368;2024-01-30T12:50:12;1.83;;;1.00;;
14797;SDS011;7490;63.708;20.368;2024-01-30T12:52:40;5.77;;;1.20;;
14797;SDS011;7490;63.708;20.368;2024-01-30T12:55:07;2.57;;;1.30;;
14797;SDS011;7490;63.708;20.368;2024-01-30T12:57:33;2.80;;;1.17;;
14797;SDS011;7490;63.708;20.368;2024-01-30T12:59:58;2.00;;;1.10;;
14797;SDS011;7490;63.708;20.368;2024-01-30T13:02:24;3.73;;;1.13;;
14797;SDS011;7490;63.708;20.368;2024-01-30T13:04:51;3.50;;;1.23;;
14797;SDS011;7490;63.708;20.368;2024-01-30T13:07:17;3.40;;;1.20;;
14797;SDS011;7490;63.708;20.368;2024-01-30T13:09:43;1.77;;;1.00;;
14797;SDS011;7490;63.708;20.368;2024-01-30T13:12:09;3.30;;;1.10;;
14797;SDS011;7490;63.708;20.368;2024-01-30T13:14:34;4.07;;;1.10;;
14797;SDS011;7490;63.708;20.368;2024-01-30T13:17:00;4.97;;;1.50;;
14797;SDS011;7490;63.708;20.368;2024-01-30T13:19:26;4.40;;;1.50;;
14797;SDS011;7490;63.708;20.368;2024-01-30T13:21:52;3.53;;;1.00;;
14797;SDS011;7490;63.708;20.368;2024-01-30T13:24:17;2.37;;;1.10;;
14797;SDS011;7490;63.708;20.368;2024-01-30T13:26:46;7.77;;;1.43;;
14797;SDS011;7490;63.708;20.368;2024-01-30T13:29:12;6.20;;;1.63;;
14797;SDS011;7490;63.708;20.368;2024-01-30T13:31:38;5.60;;;1.20;;
14797;SDS011;7490;63.708;20.368;2024-01-30T13:34:04;4.47;;;1.10;;
14797;SDS011;7490;63.708;20.368;2024-01-30T13:36:32;4.60;;;1.27;;
14797;SDS011;7490;63.708;20.368;2024-01-30T13:38:57;3.13;;;1.10;;
14797;SDS011;7490;63.708;20.368;2024-01-30T13:41:23;3.63;;;1.27;;
14797;SDS011;7490;63.708;20.368;2024-01-30T13:43:49;2.80;;;1.10;;
14797;SDS011;7490;63.708;20.368;2024-01-30T13:46:14;4.83;;;1.07;;
14797;SDS011;7490;63.708;20.368;2024-01-30T13:48:40;2.83;;;1.17;;
14797;SDS011;7490;63.708;20.368;2024-01-30T13:51:05;3.03;;;1.20;;
14797;SDS011;7490;63.708;20.368;2024-01-30T13:53:31;3.40;;;1.20;;
14797;SDS011;7490;63.708;20.368;2024-01-30T13:55:57;4.27;;;1.40;;
14797;SDS011;7490;63.708;20.368;2024-01-30T13:58:22;1.70;;;1.20;;
14797;SDS011;7490;63.708;20.368;2024-01-30T14:00:48;3.07;;;1.33;;
14797;SDS011;7490;63.708;20.368;2024-01-30T14:03:14;3.47;;;1.50;;
14797;SDS011;7490;63.708;20.368;2024-01-30T14:05:39;5.23;;;1.90;;
14797;SDS011;7490;63.708;20.368;2024-01-30T14:08:05;5.10;;;2.20;;
14797;SDS011;7490;63.708;20.368;2024-01-30T14:10:32;3.87;;;2.30;;
14797;SDS011;7490;63.708;20.368;2024-01-30T14:12:58;2.90;;;1.70;;
14797;SDS011;7490;63.708;20.368;2024-01-30T14:15:23;4.10;;;1.60;;
14797;SDS011;7490;63.708;20.368;2024-01-30T14:17:49;4.57;;;1.73;;
14797;SDS011;7490;63.708;20.368;2024-01-30T14:20:15;4.93;;;1.60;;
14797;SDS011;7490;63.708;20.368;2024-01-30T14:22:44;3.60;;;1.77;;
14797;SDS011;7490;63.708;20.368;2024-01-30T14:25:10;5.63;;;1.60;;
14797;SDS011;7490;63.708;20.368;2024-01-30T14:27:36;4.70;;;1.43;;
14797;SDS011;7490;63.708;20.368;2024-01-30T14:30:01;4.97;;;1.70;;
14797;SDS011;7490;63.708;20.368;2024-01-30T14:32:28;3.73;;;1.80;;
14797;SDS011;7490;63.708;20.368;2024-01-30T14:34:54;4.83;;;1.87;;
14797;SDS011;7490;63.708;20.368;2024-01-30T14:37:22;3.87;;;2.20;;
14797;SDS011;7490;63.708;20.368;2024-01-30T14:39:48;6.13;;;2.47;;
14797;SDS011;7490;63.708;20.368;2024-01-30T14:42:14;5.20;;;1.70;;